createdAt,value
2022-07-29T00:00:58.054Z,96634.25
2022-07-29T00:03:24.813Z,96593.56
2022-07-29T00:05:54.231Z,96671.47
2022-07-29T00:08:21.133Z,96617.56
2022-07-29T00:10:47.993Z,96653.75
2022-07-29T00:13:14.759Z,96734.59
2022-07-29T00:15:41.443Z,96679.69
2022-07-29T00:18:08.245Z,96696.06
2022-07-29T00:20:34.890Z,96691.16
2022-07-29T00:23:01.556Z,96599.63
2022-07-29T00:25:28.289Z,96561.06
2022-07-29T00:27:54.974Z,96693.13
2022-07-29T00:30:21.643Z,96605.47
2022-07-29T00:32:48.306Z,96674.19
2022-07-29T00:35:33.640Z,96669.97
2022-07-29T00:38:00.554Z,96707.06
2022-07-29T00:40:28.801Z,96638.91
2022-07-29T00:42:55.463Z,96681.69
2022-07-29T00:45:23.284Z,96703.38
2022-07-29T00:47:50.039Z,96607.22
2022-07-29T00:50:16.841Z,96613.88
2022-07-29T00:52:43.619Z,96679.50
2022-07-29T00:55:20.066Z,96623.34
2022-07-29T00:57:46.676Z,96619.13
2022-07-29T01:00:19.076Z,96617.31
2022-07-29T01:02:48.433Z,96636.38
2022-07-29T01:05:15.483Z,96476.06
2022-07-29T01:07:42.173Z,96625.34
2022-07-29T01:10:10.546Z,96576.91
2022-07-29T01:12:38.081Z,96582.13
2022-07-29T01:15:05.931Z,96615.50
2022-07-29T01:17:57.238Z,96676.47
2022-07-29T01:20:42.445Z,96671.38
2022-07-29T01:23:30.926Z,96675.19
2022-07-29T01:26:20.273Z,96672.13
2022-07-29T01:28:57.663Z,96676.97
2022-07-29T01:31:29.406Z,96677.50
2022-07-29T01:34:00.258Z,96660.69
2022-07-29T01:36:36.696Z,96571.13
2022-07-29T01:39:18.270Z,96657.50
2022-07-29T01:42:13.357Z,96666.44
2022-07-29T01:44:49.703Z,96630.59
2022-07-29T01:47:18.815Z,96540.59
2022-07-29T01:49:48.989Z,96634.41
2022-07-29T01:52:21.572Z,96487.28
2022-07-29T01:54:52.271Z,96632.25
2022-07-29T01:57:19.483Z,96681.56
2022-07-29T01:59:46.555Z,96622.91
2022-07-29T02:02:13.340Z,96519.84
2022-07-29T02:04:40.103Z,96618.31
2022-07-29T02:07:07.784Z,96646.78
2022-07-29T02:09:39.457Z,96638.56
2022-07-29T02:12:06.316Z,96601.50
2022-07-29T02:14:37.085Z,96602.50
2022-07-29T02:17:03.880Z,96573.41
2022-07-29T02:19:30.898Z,96628.28
2022-07-29T02:21:57.578Z,96612.22
2022-07-29T02:24:24.732Z,96547.16
2022-07-29T02:26:52.165Z,96666.41
2022-07-29T02:29:20.678Z,96664.94
2022-07-29T02:31:48.286Z,96629.28
2022-07-29T02:34:15.435Z,96665.47
2022-07-29T02:36:46.743Z,96624.25
2022-07-29T02:39:16.443Z,96527.59
2022-07-29T02:41:49.170Z,96604.09
2022-07-29T02:44:18.251Z,96589.28
2022-07-29T02:47:03.633Z,96651.06
2022-07-29T02:49:37.771Z,96613.59
2022-07-29T02:52:41.410Z,96576.28
2022-07-29T02:55:30.902Z,96571.25
2022-07-29T02:58:06.889Z,96573.13
2022-07-29T03:00:35.779Z,96619.88
2022-07-29T03:03:04.778Z,96591.59
2022-07-29T03:05:31.588Z,96621.25
2022-07-29T03:08:02.350Z,96484.91
2022-07-29T03:10:29.032Z,96580.88
2022-07-29T03:12:56.392Z,96494.34
2022-07-29T03:15:23.050Z,96642.94
2022-07-29T03:17:52.107Z,96523.53
2022-07-29T03:20:18.776Z,96612.75
2022-07-29T03:22:47.781Z,96634.44
2022-07-29T03:25:15.636Z,96615.06
2022-07-29T03:27:42.642Z,96449.25
2022-07-29T03:30:09.841Z,96450.25
2022-07-29T03:32:36.558Z,96491.47
2022-07-29T03:35:03.722Z,96558.91
2022-07-29T03:37:31.581Z,96597.50
2022-07-29T03:39:59.037Z,96455.47
2022-07-29T03:42:32.399Z,96643.94
2022-07-29T03:45:03.318Z,96651.34
2022-07-29T03:47:36.857Z,96606.53
2022-07-29T03:50:16.802Z,96576.94
2022-07-29T03:52:43.703Z,96622.66
2022-07-29T03:55:12.125Z,96600.66
2022-07-29T03:57:38.851Z,96558.69
2022-07-29T04:00:06.641Z,96604.88
2022-07-29T04:02:33.640Z,96592.34
2022-07-29T04:05:00.489Z,96595.78
2022-07-29T04:07:27.087Z,96549.34
2022-07-29T04:09:53.717Z,96670.38
2022-07-29T04:12:22.069Z,96561.84
2022-07-29T04:14:48.694Z,96577.03
2022-07-29T04:17:15.319Z,96575.28
2022-07-29T04:19:41.960Z,96578.25
2022-07-29T04:22:08.575Z,96606.03
2022-07-29T04:24:35.617Z,96586.94
2022-07-29T04:27:02.273Z,96542.09
2022-07-29T04:29:29.014Z,96550.00
2022-07-29T04:31:55.681Z,96580.03
2022-07-29T04:34:22.376Z,96656.75
2022-07-29T04:36:49.127Z,96552.88
2022-07-29T04:39:20.633Z,96519.50
2022-07-29T04:41:50.321Z,96616.31
2022-07-29T04:44:17.415Z,96577.88
2022-07-29T04:46:45.693Z,96633.50
2022-07-29T04:49:12.491Z,96598.94
2022-07-29T04:51:39.178Z,96625.47
2022-07-29T04:54:05.859Z,96575.06
2022-07-29T04:56:32.547Z,96585.84
2022-07-29T04:58:59.219Z,96567.84
2022-07-29T05:01:28.970Z,96568.28
2022-07-29T05:04:00.129Z,96602.47
2022-07-29T05:06:27.187Z,96441.44
2022-07-29T05:08:54.018Z,96634.31
2022-07-29T05:11:22.469Z,96635.63
2022-07-29T05:13:51.008Z,96625.31
2022-07-29T05:16:17.708Z,96635.31
2022-07-29T05:18:44.506Z,96659.09
2022-07-29T05:21:11.098Z,96566.25
2022-07-29T05:23:37.705Z,96572.63
2022-07-29T05:26:04.414Z,96599.13
2022-07-29T05:28:34.954Z,96552.41
2022-07-29T05:31:01.847Z,96308.75
2022-07-29T05:33:35.544Z,96589.63
2022-07-29T05:36:08.067Z,96622.66
2022-07-29T05:38:35.835Z,96608.81
2022-07-29T05:41:02.458Z,96602.56
2022-07-29T05:43:29.349Z,96569.59
2022-07-29T05:45:56.127Z,96446.63
2022-07-29T05:48:22.782Z,96635.31
2022-07-29T05:50:49.365Z,96527.63
2022-07-29T05:53:19.156Z,96612.06
2022-07-29T05:55:47.632Z,96652.00
2022-07-29T05:58:14.404Z,96626.91
2022-07-29T06:00:41.119Z,96579.97
2022-07-29T06:03:07.761Z,96568.91
2022-07-29T06:05:35.477Z,96616.97
2022-07-29T06:08:02.349Z,96611.56
2022-07-29T06:10:29.229Z,96621.34
2022-07-29T06:12:55.924Z,96429.75
2022-07-29T06:15:22.557Z,96641.59
2022-07-29T06:18:00.702Z,96632.78
2022-07-29T06:20:32.681Z,96675.63
2022-07-29T06:22:59.829Z,96630.88
2022-07-29T06:25:27.114Z,96610.13
2022-07-29T06:27:53.983Z,96624.13
2022-07-29T06:30:20.720Z,96669.06
2022-07-29T06:32:48.096Z,96607.78
2022-07-29T06:35:39.385Z,96531.56
2022-07-29T06:38:01.929Z,96599.97
2022-07-29T06:40:47.250Z,96581.50
2022-07-29T06:43:14.541Z,96535.09
2022-07-29T06:45:42.593Z,96647.72
2022-07-29T06:48:10.424Z,96589.19
2022-07-29T06:50:37.122Z,96591.94
2022-07-29T06:53:04.039Z,96523.22
2022-07-29T06:55:30.911Z,96645.25
2022-07-29T06:57:57.543Z,96650.31
2022-07-29T07:00:24.243Z,96610.53
2022-07-29T07:02:50.997Z,96526.31
2022-07-29T07:05:17.653Z,96651.75
2022-07-29T07:07:44.264Z,96585.22
2022-07-29T07:10:10.999Z,96639.59
2022-07-29T07:12:37.925Z,96571.84
2022-07-29T07:15:05.298Z,96633.44
2022-07-29T07:17:32.079Z,96611.09
2022-07-29T07:19:58.691Z,96605.00
2022-07-29T07:22:25.349Z,96610.91
2022-07-29T07:24:52.529Z,96628.19
2022-07-29T07:27:19.153Z,96617.50
2022-07-29T07:29:45.940Z,96538.03
2022-07-29T07:32:14.230Z,96628.31
2022-07-29T07:34:40.973Z,96645.38
2022-07-29T07:37:07.685Z,96653.25
2022-07-29T07:39:34.417Z,96622.31
2022-07-29T07:42:01.065Z,96600.56
2022-07-29T07:44:27.747Z,96613.91
2022-07-29T07:46:54.691Z,96640.00
2022-07-29T07:49:21.639Z,96669.81
2022-07-29T07:51:50.633Z,96654.16
2022-07-29T07:54:20.568Z,96606.38
2022-07-29T07:56:50.825Z,96594.88
2022-07-29T07:59:20.279Z,96620.72
2022-07-29T08:01:48.121Z,96615.34
2022-07-29T08:04:27.586Z,96402.22
2022-07-29T08:06:57.752Z,96601.91
2022-07-29T08:09:29.846Z,96605.59
2022-07-29T08:11:57.714Z,96518.19
2022-07-29T08:14:24.355Z,96557.97
2022-07-29T08:16:51.934Z,96601.25
2022-07-29T08:19:18.665Z,96599.28
2022-07-29T08:21:45.426Z,96608.16
2022-07-29T08:24:30.641Z,96553.75
2022-07-29T08:26:57.332Z,96619.78
2022-07-29T08:29:23.965Z,96508.44
2022-07-29T08:31:51.022Z,96648.75
2022-07-29T08:34:17.876Z,96606.22
2022-07-29T08:36:44.492Z,96607.91
2022-07-29T08:39:16.854Z,96616.00
2022-07-29T08:41:56.880Z,96567.69
2022-07-29T08:44:29.598Z,96545.31
2022-07-29T08:46:57.888Z,96670.09
2022-07-29T08:49:24.590Z,96600.72
2022-07-29T08:51:51.255Z,96605.53
2022-07-29T08:54:18.604Z,96634.66
2022-07-29T08:59:31.397Z,96524.69
2022-07-29T09:01:58.927Z,96474.53
2022-07-29T09:04:25.988Z,96536.97
2022-07-29T09:06:53.047Z,96632.00
2022-07-29T09:09:19.809Z,96585.25
2022-07-29T09:11:46.460Z,96583.16
2022-07-29T09:14:14.440Z,96642.13
2022-07-29T09:16:53.072Z,96657.63
2022-07-29T09:19:30.525Z,96654.69
2022-07-29T09:22:04.246Z,96632.53
2022-07-29T09:24:44.785Z,96586.09
2022-07-29T09:27:12.270Z,96526.31
2022-07-29T09:29:39.407Z,96646.09
2022-07-29T09:32:08.158Z,96575.88
2022-07-29T09:34:34.941Z,96585.72
2022-07-29T09:37:01.617Z,96599.81
2022-07-29T09:39:39.084Z,96615.25
2022-07-29T09:42:06.831Z,96607.75
2022-07-29T09:44:44.170Z,96496.84
2022-07-29T09:47:10.865Z,96548.00
2022-07-29T09:49:59.348Z,96626.94
2022-07-29T09:52:26.968Z,96624.56
2022-07-29T09:54:55.108Z,96577.97
2022-07-29T09:57:31.092Z,96524.91
2022-07-29T10:00:07.782Z,96542.25
2022-07-29T10:02:47.129Z,96599.38
2022-07-29T10:05:36.064Z,96591.91
2022-07-29T10:08:03.790Z,96557.28
2022-07-29T10:10:37.698Z,96558.59
2022-07-29T10:13:09.810Z,96576.50
2022-07-29T10:15:41.831Z,96574.88
2022-07-29T10:18:09.171Z,96552.75
2022-07-29T10:20:35.952Z,96456.97
2022-07-29T10:23:02.618Z,96532.44
2022-07-29T10:25:29.299Z,96473.47
2022-07-29T10:28:01.997Z,96615.84
2022-07-29T10:30:28.745Z,96608.84
2022-07-29T10:33:08.080Z,96578.66
2022-07-29T10:35:47.415Z,96430.75
2022-07-29T10:38:26.243Z,96606.28
2022-07-29T10:41:28.989Z,96600.53
2022-07-29T10:44:11.365Z,96602.16
2022-07-29T10:46:44.039Z,96560.69
2022-07-29T10:49:18.169Z,96602.78
2022-07-29T10:51:54.375Z,96597.78
2022-07-29T10:54:48.731Z,96558.16
2022-07-29T10:57:25.899Z,96604.34
2022-07-29T11:00:09.992Z,96603.56
2022-07-29T11:02:46.666Z,96600.84
2022-07-29T11:05:14.903Z,96546.97
2022-07-29T11:08:28.171Z,96591.66
2022-07-29T11:11:20.416Z,96584.09
2022-07-29T11:13:54.186Z,96485.44
2022-07-29T11:16:25.271Z,96527.53
2022-07-29T11:19:14.543Z,96582.44
2022-07-29T11:28:22.868Z,96582.75
2022-07-29T11:30:52.741Z,96549.47
2022-07-29T11:33:54.413Z,96544.72
2022-07-29T11:36:19.750Z,96516.69
2022-07-29T11:42:35.560Z,96576.47
2022-07-29T11:45:44.412Z,96567.38
2022-07-29T11:48:03.640Z,96409.09
2022-07-29T11:50:45.876Z,96530.44
2022-07-29T11:53:14.992Z,96504.22
2022-07-29T11:55:51.541Z,96598.97
2022-07-29T11:58:25.005Z,96363.00
2022-07-29T12:00:56.332Z,96506.31
2022-07-29T12:03:34.202Z,96436.34
2022-07-29T12:06:21.075Z,96490.19
2022-07-29T12:07:02.754Z,96579.19
2022-07-29T12:08:48.068Z,96398.81
2022-07-29T12:11:23.463Z,96518.63
2022-07-29T12:13:53.718Z,96531.16
2022-07-29T12:16:26.103Z,96565.16
2022-07-29T12:19:03.750Z,96595.00
2022-07-29T12:21:31.301Z,96610.22
2022-07-29T12:24:04.842Z,96502.38
2022-07-29T12:26:35.915Z,96554.25
2022-07-29T12:29:03.338Z,96393.50
2022-07-29T12:31:42.861Z,96482.56
2022-07-29T12:34:15.260Z,96587.63
2022-07-29T12:36:42.693Z,96447.34
2022-07-29T12:39:10.256Z,96503.84
2022-07-29T12:41:37.111Z,96478.59
2022-07-29T12:44:04.225Z,96576.88
2022-07-29T12:46:30.926Z,96406.91
2022-07-29T12:48:58.325Z,96549.38
2022-07-29T12:51:34.067Z,96594.91
2022-07-29T12:54:24.558Z,96595.69
2022-07-29T12:56:59.650Z,96552.69
2022-07-29T12:59:26.313Z,96567.41
2022-07-29T13:01:53.190Z,96476.28
2022-07-29T13:04:33.225Z,96558.59
2022-07-29T13:07:10.528Z,96480.03
2022-07-29T13:09:46.846Z,96565.63
2022-07-29T13:12:14.058Z,96585.63
2022-07-29T13:14:45.563Z,96582.38
2022-07-29T13:17:24.698Z,96535.97
2022-07-29T13:20:05.092Z,96599.13
2022-07-29T13:22:35.740Z,96566.09
2022-07-29T13:25:05.316Z,96542.66
2022-07-29T13:27:33.319Z,96480.44
2022-07-29T13:30:01.016Z,96511.44
2022-07-29T13:32:29.077Z,96558.50
2022-07-29T13:35:01.575Z,96463.50
2022-07-29T13:37:34.064Z,96423.22
2022-07-29T13:40:00.956Z,96528.88
2022-07-29T13:42:27.877Z,96520.88
2022-07-29T13:44:54.809Z,96542.22
2022-07-29T13:47:21.819Z,96476.25
2022-07-29T13:49:48.990Z,96532.81
2022-07-29T13:52:16.554Z,96492.72
2022-07-29T13:54:43.908Z,96522.13
2022-07-29T13:57:13.895Z,96507.63
2022-07-29T13:59:43.983Z,96526.53
2022-07-29T14:02:11.112Z,96492.91
2022-07-29T14:04:39.479Z,96491.28
2022-07-29T14:07:06.746Z,96493.41
2022-07-29T14:09:41.009Z,96453.06
2022-07-29T14:12:09.064Z,96523.84
2022-07-29T14:14:37.453Z,96524.38
2022-07-29T14:17:04.543Z,96370.31
2022-07-29T14:19:33.333Z,96415.72
2022-07-29T14:22:00.322Z,96492.38
2022-07-29T14:24:27.480Z,96477.44
2022-07-29T14:26:54.252Z,96495.00
2022-07-29T14:29:21.031Z,96372.97
2022-07-29T14:31:47.785Z,96531.59
2022-07-29T14:34:16.536Z,96476.84
2022-07-29T14:36:43.282Z,96502.47
2022-07-29T14:39:09.903Z,96545.13
2022-07-29T14:41:36.615Z,96291.25
2022-07-29T14:44:03.464Z,96473.00
2022-07-29T14:46:30.131Z,96507.69
2022-07-29T14:48:56.901Z,96478.25
2022-07-29T14:51:23.563Z,96464.38
2022-07-29T14:53:58.971Z,96487.75
2022-07-29T14:56:46.821Z,96454.84
2022-07-29T14:59:12.279Z,96471.28
2022-07-29T15:01:38.988Z,96522.94
2022-07-29T15:04:05.712Z,96435.72
2022-07-29T15:06:32.410Z,96388.94
2022-07-29T15:08:59.045Z,96289.97
2022-07-29T15:11:39.101Z,96503.56
2022-07-29T15:14:06.854Z,96412.66
2022-07-29T15:16:33.866Z,96461.63
2022-07-29T15:19:01.155Z,96473.66
2022-07-29T15:21:28.400Z,96411.53
2022-07-29T15:23:55.009Z,96445.97
2022-07-29T15:26:21.679Z,96374.53
2022-07-29T15:28:48.905Z,96428.59
2022-07-29T15:31:15.645Z,96445.13
2022-07-29T15:33:42.312Z,96462.66
2022-07-29T15:36:09.007Z,96497.97
2022-07-29T15:38:35.799Z,96439.44
2022-07-29T15:41:08.678Z,96477.88
2022-07-29T15:43:36.251Z,96421.13
2022-07-29T15:46:21.503Z,96457.53
2022-07-29T15:48:48.389Z,96345.50
2022-07-29T15:51:15.259Z,96508.28
2022-07-29T15:53:41.976Z,96431.88
2022-07-29T15:56:08.582Z,96379.41
2022-07-29T15:58:35.193Z,96497.78
2022-07-29T16:01:01.969Z,96491.81
2022-07-29T16:03:29.619Z,96437.81
2022-07-29T16:05:56.361Z,96461.50
2022-07-29T16:08:23.155Z,96526.44
2022-07-29T16:10:49.770Z,96433.31
2022-07-29T16:13:16.998Z,96460.59
2022-07-29T16:15:45.452Z,96435.72
2022-07-29T16:18:30.149Z,96498.00
2022-07-29T16:20:57.112Z,96429.69
2022-07-29T16:23:24.761Z,96533.44
2022-07-29T16:25:59.714Z,96406.97
2022-07-29T16:28:27.897Z,96378.63
2022-07-29T16:30:54.550Z,96423.03
2022-07-29T16:33:21.342Z,96371.59
2022-07-29T16:35:48.005Z,96504.31
2022-07-29T16:38:14.706Z,96448.13
2022-07-29T16:40:41.488Z,96439.50
2022-07-29T16:43:08.318Z,96291.38
2022-07-29T16:45:45.297Z,96300.19
2022-07-29T16:48:17.918Z,96430.13
2022-07-29T16:50:45.071Z,96429.81
2022-07-29T16:53:11.682Z,96438.88
2022-07-29T16:55:38.644Z,96224.19
2022-07-29T16:58:09.271Z,96443.63
2022-07-29T17:00:36.065Z,96405.66
2022-07-29T17:03:02.731Z,96466.03
2022-07-29T17:05:29.335Z,96474.38
2022-07-29T17:07:57.522Z,96455.41
2022-07-29T17:10:26.617Z,96261.13
2022-07-29T17:12:54.637Z,96476.69
2022-07-29T17:15:21.267Z,96421.63
2022-07-29T17:17:55.174Z,96392.28
2022-07-29T17:20:23.472Z,96435.88
2022-07-29T17:22:50.397Z,96469.03
2022-07-29T17:25:20.830Z,96212.31
2022-07-29T17:27:49.686Z,96475.94
2022-07-29T17:30:16.534Z,96466.25
2022-07-29T17:32:43.153Z,96440.81
2022-07-29T17:35:28.268Z,96212.47
2022-07-29T17:37:54.891Z,96473.66
2022-07-29T17:40:21.730Z,96383.16
2022-07-29T17:42:48.413Z,96510.13
2022-07-29T17:45:15.017Z,96407.47
2022-07-29T17:47:41.912Z,96458.47
2022-07-29T17:50:08.851Z,96434.28
2022-07-29T17:52:35.522Z,96468.34
2022-07-29T17:55:02.688Z,96478.78
2022-07-29T17:57:33.400Z,96291.19
2022-07-29T18:00:00.111Z,96461.66
2022-07-29T18:02:27.128Z,96401.25
2022-07-29T18:04:55.309Z,96455.13
2022-07-29T18:07:22.054Z,96319.03
2022-07-29T18:09:48.840Z,96432.91
2022-07-29T18:12:15.580Z,96532.00
2022-07-29T18:14:42.386Z,96471.31
2022-07-29T18:17:09.022Z,96503.72
2022-07-29T18:19:35.725Z,96463.63
2022-07-29T18:22:05.167Z,96362.75
2022-07-29T18:24:32.291Z,96461.34
2022-07-29T18:26:59.149Z,96303.63
2022-07-29T18:29:28.958Z,96449.69
2022-07-29T18:31:55.880Z,96537.47
2022-07-29T18:34:22.556Z,96308.25
2022-07-29T18:36:49.204Z,96497.25
2022-07-29T18:39:20.893Z,96257.47
2022-07-29T18:41:50.615Z,96475.09
2022-07-29T18:44:21.879Z,96490.72
2022-07-29T18:46:49.586Z,96452.19
2022-07-29T18:49:16.336Z,96497.78
2022-07-29T18:51:43.001Z,96414.72
2022-07-29T18:54:10.564Z,96459.56
2022-07-29T18:56:37.345Z,96384.41
2022-07-29T18:59:04.387Z,96091.00
2022-07-29T19:01:31.681Z,96497.50
2022-07-29T19:03:59.208Z,96485.78
2022-07-29T19:06:35.084Z,96235.94
2022-07-29T19:09:01.882Z,96129.22
2022-07-29T19:11:28.554Z,96492.47
2022-07-29T19:13:55.257Z,96550.44
2022-07-29T19:16:22.064Z,96531.50
2022-07-29T19:18:48.908Z,96512.03
2022-07-29T19:21:15.634Z,96498.91
2022-07-29T19:24:04.256Z,96424.03
2022-07-29T19:26:30.928Z,96489.84
2022-07-29T19:28:57.590Z,96521.00
2022-07-29T19:31:25.811Z,96437.28
2022-07-29T19:33:52.524Z,96409.91
2022-07-29T19:36:19.179Z,96552.06
2022-07-29T19:38:45.801Z,96452.16
2022-07-29T19:41:13.223Z,96515.47
2022-07-29T19:43:49.923Z,96520.50
2022-07-29T19:46:22.997Z,96388.47
2022-07-29T19:48:50.033Z,96447.03
2022-07-29T19:51:17.088Z,96515.00
2022-07-29T19:53:43.832Z,96492.16
2022-07-29T19:56:10.490Z,96509.97
2022-07-29T19:58:37.182Z,96554.72
2022-07-29T20:01:10.240Z,96540.81
2022-07-29T20:03:39.938Z,96470.06
2022-07-29T20:06:07.545Z,96360.47
2022-07-29T20:08:34.248Z,96443.81
2022-07-29T20:11:00.902Z,96302.03
2022-07-29T20:13:27.587Z,96498.03
2022-07-29T20:15:54.342Z,96409.84
2022-07-29T20:18:21.100Z,96454.28
2022-07-29T20:20:49.620Z,96389.06
2022-07-29T20:23:17.193Z,96467.47
2022-07-29T20:25:44.443Z,96477.75
2022-07-29T20:28:11.075Z,96488.63
2022-07-29T20:30:38.581Z,96510.13
2022-07-29T20:33:05.456Z,96486.72
2022-07-29T20:35:32.071Z,96468.84
2022-07-29T20:37:59.850Z,96377.63
2022-07-29T20:40:27.332Z,96416.19
2022-07-29T20:42:54.639Z,96257.19
2022-07-29T20:45:21.853Z,96290.72
2022-07-29T20:47:48.545Z,96367.75
2022-07-29T20:50:15.497Z,96417.31
2022-07-29T20:52:44.078Z,96425.28
2022-07-29T20:55:10.810Z,96462.56
2022-07-29T20:57:39.195Z,96465.41
2022-07-29T21:00:07.211Z,96433.13
2022-07-29T21:02:34.025Z,96456.50
2022-07-29T21:05:00.977Z,96366.28
2022-07-29T21:07:27.696Z,96407.19
2022-07-29T21:10:02.722Z,96444.94
2022-07-29T21:12:30.177Z,96401.16
2022-07-29T21:14:57.837Z,96458.00
2022-07-29T21:17:24.614Z,96449.94
2022-07-29T21:19:53.342Z,96393.69
2022-07-29T21:22:23.203Z,96416.41
2022-07-29T21:24:50.026Z,96479.72
2022-07-29T21:27:35.423Z,96402.41
2022-07-29T21:30:06.446Z,96424.56
2022-07-29T21:32:33.141Z,96433.25
2022-07-29T21:34:59.994Z,96456.41
2022-07-29T21:37:27.116Z,96496.34
2022-07-29T21:39:53.740Z,96373.75
2022-07-29T21:42:20.430Z,96384.84
2022-07-29T21:44:47.120Z,96447.88
2022-07-29T21:47:13.751Z,96465.44
2022-07-29T21:49:40.365Z,96343.63
2022-07-29T21:52:08.108Z,96391.75
2022-07-29T21:54:35.767Z,96477.41
2022-07-29T21:57:02.997Z,96431.88
2022-07-29T21:59:30.027Z,96487.53
2022-07-29T22:02:00.772Z,96466.59
2022-07-29T22:04:28.677Z,96447.56
2022-07-29T22:06:55.774Z,96418.19
2022-07-29T22:09:22.391Z,96416.38
2022-07-29T22:11:49.086Z,96431.72
2022-07-29T22:14:17.751Z,96437.31
2022-07-29T22:16:45.679Z,96430.69
2022-07-29T22:19:12.849Z,96437.38
2022-07-29T22:21:39.984Z,96434.78
2022-07-29T22:24:07.132Z,96493.78
2022-07-29T22:26:36.215Z,96470.66
2022-07-29T22:29:02.834Z,96380.63
2022-07-29T22:31:29.478Z,96370.25
2022-07-29T22:33:56.111Z,96378.09
2022-07-29T22:36:22.866Z,96481.72
2022-07-29T22:38:52.005Z,96447.00
2022-07-29T22:41:18.857Z,96379.53
2022-07-29T22:43:45.501Z,96242.72
2022-07-29T22:46:12.233Z,96128.59
2022-07-29T22:48:39.018Z,96453.44
2022-07-29T22:51:05.809Z,96200.88
2022-07-29T22:53:32.530Z,96340.00
2022-07-29T22:55:59.190Z,96402.03
2022-07-29T22:58:25.871Z,96207.25
2022-07-29T23:00:52.672Z,96206.28
2022-07-29T23:03:19.514Z,96373.19
2022-07-29T23:05:46.216Z,96292.25
2022-07-29T23:08:12.958Z,96420.31
2022-07-29T23:10:39.607Z,96375.47
2022-07-29T23:13:06.362Z,96374.31
2022-07-29T23:15:32.992Z,96413.66
2022-07-29T23:17:59.633Z,96340.59
2022-07-29T23:20:26.480Z,96358.50
2022-07-29T23:22:53.099Z,96333.88
2022-07-29T23:25:19.784Z,96150.06
2022-07-29T23:27:46.442Z,96401.50
2022-07-29T23:30:13.198Z,96398.66
2022-07-29T23:32:39.870Z,96359.41
2022-07-29T23:35:07.426Z,96387.19
2022-07-29T23:37:34.522Z,96318.31
2022-07-29T23:40:01.159Z,96170.69
2022-07-29T23:42:27.972Z,96363.94
2022-07-29T23:44:54.620Z,96380.88
2022-07-29T23:47:21.318Z,96234.19
2022-07-29T23:49:50.048Z,96429.31
2022-07-29T23:52:17.422Z,96279.72
2022-07-29T23:54:44.072Z,96281.34
2022-07-29T23:57:10.851Z,96169.34
2022-07-29T23:59:37.546Z,96268.63
